Time;durP1;ratioP1;P1;durP2;ratioP2;P2;SDS_P1;SDS_P2;PMS_P1;PMS_P2;Temp;Humidity;BMP_temperature;BMP_pressure;BME280_temperature;BME280_humidity;BME280_pressure;Samples;Min_cycle;Max_cycle;Signal;HPM_P1;HPM_P2
2022/12/13 00:01:35;;;;;;;63.15;20.10;;;;;;;;;;4987441;28;20022;-70
2022/12/13 00:04:01;;;;;;;61.72;21.77;;;;;;;;;;4990861;28;20030;-71
2022/12/13 00:06:28;;;;;;;57.08;22.10;;;;;;;;;;4986956;28;20024;-71
2022/12/13 00:08:53;;;;;;;69.70;21.20;;;;;;;;;;4990091;28;20113;-71
2022/12/13 00:11:18;;;;;;;58.63;21.77;;;;;;;;;;4988705;28;20430;-71
2022/12/13 00:13:45;;;;;;;64.63;21.40;;;;;;;;;;4991616;28;20015;-71
2022/12/13 00:16:12;;;;;;;52.78;19.65;;;;;;;;;;4992173;28;20371;-71
2022/12/13 00:18:37;;;;;;;61.03;20.73;;;;;;;;;;4990708;28;20698;-71
2022/12/13 00:21:03;;;;;;;63.75;21.88;;;;;;;;;;4989994;28;20026;-69
2022/12/13 00:23:29;;;;;;;67.07;20.73;;;;;;;;;;4988858;28;20053;-70
2022/12/13 00:25:54;;;;;;;57.00;18.25;;;;;;;;;;4988933;28;20384;-70
2022/12/13 00:28:19;;;;;;;58.22;20.58;;;;;;;;;;4990797;28;20105;-71
2022/12/13 00:30:44;;;;;;;48.38;18.58;;;;;;;;;;4990868;28;20041;-71
2022/12/13 00:33:09;;;;;;;52.30;19.63;;;;;;;;;;4987285;28;20050;-71
2022/12/13 00:35:41;;;;;;;56.28;20.98;;;;;;;;;;4991114;28;20057;-71
2022/12/13 00:38:06;;;;;;;60.25;21.05;;;;;;;;;;4983933;28;20101;-71
2022/12/13 00:40:31;;;;;;;61.17;20.42;;;;;;;;;;4988413;28;20130;-71
2022/12/13 00:42:57;;;;;;;54.67;22.15;;;;;;;;;;4991615;28;20033;-70
2022/12/13 00:45:22;;;;;;;56.05;19.30;;;;;;;;;;4990841;28;20029;-70
2022/12/13 00:47:47;;;;;;;55.90;20.85;;;;;;;;;;4987285;28;20030;-70
2022/12/13 00:50:12;;;;;;;44.72;18.90;;;;;;;;;;4986028;28;20018;-69
2022/12/13 00:52:37;;;;;;;49.97;20.90;;;;;;;;;;4985918;28;20153;-69
2022/12/13 00:55:03;;;;;;;59.00;20.05;;;;;;;;;;4989527;28;20027;-70
2022/12/13 00:57:28;;;;;;;55.13;20.17;;;;;;;;;;4990436;28;20049;-70
2022/12/13 00:59:53;;;;;;;54.25;21.40;;;;;;;;;;4989145;28;20033;-70
2022/12/13 01:02:18;;;;;;;56.42;21.58;;;;;;;;;;4988794;28;20391;-70
2022/12/13 01:04:44;;;;;;;58.92;20.00;;;;;;;;;;4990928;28;20124;-71
2022/12/13 01:07:09;;;;;;;52.22;20.08;;;;;;;;;;4988524;28;20023;-70
2022/12/13 01:09:34;;;;;;;54.78;20.63;;;;;;;;;;4983455;28;20026;-71
2022/12/13 01:12:04;;;;;;;61.85;20.33;;;;;;;;;;4990531;28;20026;-70
2022/12/13 01:14:29;;;;;;;58.25;21.38;;;;;;;;;;4987482;28;20037;-71
2022/12/13 01:16:55;;;;;;;51.42;19.23;;;;;;;;;;4989768;28;20475;-70
2022/12/13 01:19:24;;;;;;;56.83;22.17;;;;;;;;;;4988777;28;20060;-69
2022/12/13 01:21:53;;;;;;;53.47;19.75;;;;;;;;;;4989556;28;20025;-70
2022/12/13 01:24:20;;;;;;;49.88;19.48;;;;;;;;;;4988281;28;20029;-69
2022/12/13 01:26:45;;;;;;;56.20;21.38;;;;;;;;;;4989458;28;20033;-70
2022/12/13 01:29:10;;;;;;;60.85;22.15;;;;;;;;;;4989568;28;20014;-70
2022/12/13 01:31:40;;;;;;;52.83;20.00;;;;;;;;;;4990083;28;20015;-70
2022/12/13 01:34:09;;;;;;;58.58;21.55;;;;;;;;;;4987879;28;20046;-70
2022/12/13 01:36:34;;;;;;;62.35;19.70;;;;;;;;;;4989587;28;20045;-70
2022/12/13 01:39:00;;;;;;;63.83;21.67;;;;;;;;;;4982504;28;20022;-70
2022/12/13 01:41:27;;;;;;;54.42;20.27;;;;;;;;;;4988697;28;20014;-70
2022/12/13 01:43:53;;;;;;;51.72;19.08;;;;;;;;;;4988300;28;20026;-69
2022/12/13 01:46:19;;;;;;;59.60;21.05;;;;;;;;;;4990558;28;20007;-70
2022/12/13 01:48:49;;;;;;;58.83;19.52;;;;;;;;;;4988830;28;20024;-71
2022/12/13 01:51:14;;;;;;;;;;;;;;;;;;4987075;28;20066;-71
2022/12/13 01:53:40;;;;;;;58.80;21.02;;;;;;;;;;4989260;28;19913;-73
2022/12/13 01:56:08;;;;;;;55.78;20.52;;;;;;;;;;4988934;28;20535;-70
2022/12/13 01:58:33;;;;;;;55.70;19.17;;;;;;;;;;4996188;28;20042;-69
2022/12/13 02:00:59;;;;;;;61.22;21.75;;;;;;;;;;4987960;28;20022;-70
2022/12/13 02:03:24;;;;;;;59.35;20.13;;;;;;;;;;4987651;28;20025;-69
2022/12/13 02:05:55;;;;;;;58.05;21.35;;;;;;;;;;4989404;28;20022;-69
2022/12/13 02:08:21;;;;;;;54.95;19.77;;;;;;;;;;4985700;28;20033;-69
2022/12/13 02:10:46;;;;;;;70.28;21.90;;;;;;;;;;4987659;28;20026;-69
2022/12/13 02:13:11;;;;;;;62.97;23.60;;;;;;;;;;4983965;28;20089;-69
2022/12/13 02:16:00;;;;;;;61.22;22.58;;;;;;;;;;4989125;28;20026;-69
2022/12/13 02:18:32;;;;;;;67.18;21.63;;;;;;;;;;4982422;28;20089;-69
2022/12/13 02:21:03;;;;;;;64.55;23.70;;;;;;;;;;4986945;28;20068;-69
2022/12/13 02:23:37;;;;;;;60.47;22.75;;;;;;;;;;4984053;28;20014;-69
2022/12/13 02:26:05;;;;;;;56.67;21.33;;;;;;;;;;4986624;28;20025;-69
2022/12/13 02:28:46;;;;;;;64.68;20.92;;;;;;;;;;4990246;28;20021;-70
2022/12/13 02:31:16;;;;;;;58.10;20.58;;;;;;;;;;4987477;28;20093;-69
2022/12/13 02:34:00;;;;;;;59.65;20.08;;;;;;;;;;4989070;28;20022;-69
2022/12/13 02:36:30;;;;;;;55.83;19.10;;;;;;;;;;4982845;28;20048;-70
2022/12/13 02:38:58;;;;;;;60.38;21.25;;;;;;;;;;4985636;28;20141;-69
2022/12/13 02:41:35;;;;;;;58.50;21.38;;;;;;;;;;4982816;28;20536;-70
2022/12/13 02:44:04;;;;;;;61.30;20.45;;;;;;;;;;4987702;28;20022;-70
2022/12/13 02:46:34;;;;;;;53.45;20.17;;;;;;;;;;4985660;28;20102;-69
2022/12/13 02:48:59;;;;;;;63.83;21.88;;;;;;;;;;4986616;28;20478;-69
2022/12/13 02:51:25;;;;;;;54.95;21.30;;;;;;;;;;4985959;28;20022;-69
2022/12/13 02:53:51;;;;;;;67.72;22.17;;;;;;;;;;4987228;28;20034;-69
2022/12/13 02:56:16;;;;;;;62.67;20.42;;;;;;;;;;4988121;28;20022;-69
2022/12/13 02:58:48;;;;;;;66.78;22.92;;;;;;;;;;4986682;28;20707;-70
2022/12/13 03:01:22;;;;;;;67.20;22.20;;;;;;;;;;4988572;28;20018;-69
2022/12/13 03:03:50;;;;;;;68.93;23.73;;;;;;;;;;4988944;28;20054;-69
2022/12/13 03:06:31;;;;;;;67.18;21.75;;;;;;;;;;4984886;28;20022;-69
2022/12/13 03:08:56;;;;;;;;;;;;;;;;;;4986823;28;20050;-69
2022/12/13 03:11:23;;;;;;;62.80;20.92;;;;;;;;;;4989162;28;19959;-69
2022/12/13 03:13:51;;;;;;;63.25;22.92;;;;;;;;;;4985459;28;20515;-69
2022/12/13 03:16:28;;;;;;;56.90;21.85;;;;;;;;;;4988376;28;20014;-69
2022/12/13 03:18:56;;;;;;;56.35;20.02;;;;;;;;;;4986224;28;20034;-69
2022/12/13 03:21:21;;;;;;;60.75;21.60;;;;;;;;;;4986862;28;20076;-69
2022/12/13 03:23:46;;;;;;;62.15;22.38;;;;;;;;;;4985205;28;20026;-69
2022/12/13 03:26:25;;;;;;;63.45;22.83;;;;;;;;;;4991208;28;20031;-69
2022/12/13 03:28:50;;;;;;;65.70;22.17;;;;;;;;;;4990204;28;20030;-69
2022/12/13 03:31:16;;;;;;;65.43;21.75;;;;;;;;;;4981828;28;20026;-69
2022/12/13 03:33:41;;;;;;;59.88;21.15;;;;;;;;;;4986794;28;20053;-69
2022/12/13 03:36:07;;;;;;;64.72;22.98;;;;;;;;;;4984714;28;20029;-69
2022/12/13 03:38:32;;;;;;;63.95;22.80;;;;;;;;;;4990521;28;20026;-70
2022/12/13 03:40:59;;;;;;;61.17;21.20;;;;;;;;;;4989165;28;20034;-69
2022/12/13 03:43:25;;;;;;;63.33;23.23;;;;;;;;;;4992374;28;20034;-69
2022/12/13 03:45:51;;;;;;;65.55;22.48;;;;;;;;;;4991253;28;20538;-69
2022/12/13 03:48:16;;;;;;;61.08;20.63;;;;;;;;;;4990292;28;20054;-69
2022/12/13 03:50:41;;;;;;;60.40;20.45;;;;;;;;;;4989500;28;20034;-69
2022/12/13 03:53:06;;;;;;;63.03;21.92;;;;;;;;;;4980414;28;20157;-69
2022/12/13 03:55:32;;;;;;;55.88;19.55;;;;;;;;;;4991970;28;20455;-69
2022/12/13 03:57:57;;;;;;;81.60;21.88;;;;;;;;;;4985216;28;20034;-69
2022/12/13 04:00:22;;;;;;;58.83;21.60;;;;;;;;;;4987131;28;20022;-69
2022/12/13 04:02:47;;;;;;;59.70;21.10;;;;;;;;;;4990352;28;20022;-70
2022/12/13 04:05:13;;;;;;;58.33;21.25;;;;;;;;;;4991289;28;20026;-69
2022/12/13 04:07:38;;;;;;;61.13;20.83;;;;;;;;;;4992571;28;20546;-69
2022/12/13 04:10:04;;;;;;;63.25;21.02;;;;;;;;;;4990209;28;20046;-70
2022/12/13 04:15:13;;;;;;;49.33;18.95;;;;;;;;;;4987454;28;20029;-70
2022/12/13 04:17:38;;;;;;;59.30;20.65;;;;;;;;;;4987647;28;20027;-69
2022/12/13 04:20:04;;;;;;;64.82;20.83;;;;;;;;;;4982023;28;20406;-69
2022/12/13 04:22:29;;;;;;;54.15;18.88;;;;;;;;;;4991446;28;20037;-69
2022/12/13 04:24:54;;;;;;;58.42;21.02;;;;;;;;;;4988613;28;20047;-70
2022/12/13 04:27:19;;;;;;;57.40;19.52;;;;;;;;;;4991361;28;20491;-69
2022/12/13 04:29:44;;;;;;;59.88;19.88;;;;;;;;;;4989977;28;20026;-70
2022/12/13 04:32:09;;;;;;;63.65;20.98;;;;;;;;;;4984847;28;20018;-69
2022/12/13 04:34:35;;;;;;;62.85;20.75;;;;;;;;;;4984997;28;20161;-70
2022/12/13 04:37:00;;;;;;;59.95;21.70;;;;;;;;;;4990841;28;20023;-69
2022/12/13 04:39:25;;;;;;;55.00;21.80;;;;;;;;;;4990902;28;20026;-70
2022/12/13 04:41:51;;;;;;;58.25;19.52;;;;;;;;;;4989222;28;20033;-69
2022/12/13 04:44:16;;;;;;;62.60;21.83;;;;;;;;;;4988855;28;20038;-69
2022/12/13 04:46:41;;;;;;;62.35;22.45;;;;;;;;;;4989554;28;20030;-69
2022/12/13 04:49:07;;;;;;;59.25;21.13;;;;;;;;;;4988553;28;20018;-69
2022/12/13 04:51:32;;;;;;;56.67;20.17;;;;;;;;;;4990163;28;20467;-69
2022/12/13 04:53:57;;;;;;;61.78;20.27;;;;;;;;;;4991700;28;20022;-69
2022/12/13 04:56:22;;;;;;;59.05;19.65;;;;;;;;;;4988677;28;20080;-69
2022/12/13 04:58:47;;;;;;;48.00;17.77;;;;;;;;;;4989578;28;20030;-69
2022/12/13 05:01:13;;;;;;;63.35;20.58;;;;;;;;;;4984071;28;20027;-69
2022/12/13 05:03:38;;;;;;;63.08;20.95;;;;;;;;;;4990868;28;20052;-69
2022/12/13 05:06:10;;;;;;;63.55;22.73;;;;;;;;;;4989270;28;20133;-69
2022/12/13 05:08:36;;;;;;;59.00;20.73;;;;;;;;;;4990324;28;20045;-70
2022/12/13 05:11:02;;;;;;;66.57;22.35;;;;;;;;;;4989582;28;20026;-69
2022/12/13 05:13:27;;;;;;;60.08;21.73;;;;;;;;;;4983289;28;20026;-69
2022/12/13 05:15:56;;;;;;;55.42;18.63;;;;;;;;;;4989700;28;20022;-70
2022/12/13 05:18:21;;;;;;;61.75;19.42;;;;;;;;;;4986173;28;20505;-69
2022/12/13 05:20:47;;;;;;;60.05;20.35;;;;;;;;;;4988740;28;20034;-69
2022/12/13 05:23:12;;;;;;;52.40;19.25;;;;;;;;;;4987396;28;20038;-70
2022/12/13 05:25:37;;;;;;;63.78;20.90;;;;;;;;;;4989813;28;20030;-69
2022/12/13 05:28:03;;;;;;;64.03;20.77;;;;;;;;;;4981545;28;20029;-70
2022/12/13 05:30:28;;;;;;;58.83;19.35;;;;;;;;;;4988939;28;20014;-69
2022/12/13 05:32:54;;;;;;;54.83;18.23;;;;;;;;;;4988934;28;20029;-69
2022/12/13 05:35:19;;;;;;;62.30;22.30;;;;;;;;;;4989485;28;20030;-69
2022/12/13 05:37:44;;;;;;;71.75;21.10;;;;;;;;;;4988582;28;20032;-69
2022/12/13 05:40:10;;;;;;;65.07;21.88;;;;;;;;;;4989139;28;20089;-69
2022/12/13 05:42:36;;;;;;;51.10;19.23;;;;;;;;;;4988279;28;20023;-69
2022/12/13 05:45:01;;;;;;;35.72;10.43;;;;;;;;;;4988306;28;21473;-70
2022/12/13 05:47:26;;;;;;;56.90;20.58;;;;;;;;;;4988663;28;20026;-69
2022/12/13 05:49:52;;;;;;;69.00;23.02;;;;;;;;;;4988197;28;20018;-69
2022/12/13 05:52:18;;;;;;;39.60;12.82;;;;;;;;;;4981974;28;20018;-69
2022/12/13 05:54:43;;;;;;;56.55;20.73;;;;;;;;;;4979128;28;20058;-69
2022/12/13 05:57:08;;;;;;;64.40;22.38;;;;;;;;;;4987860;28;20035;-70
2022/12/13 05:59:33;;;;;;;53.70;17.88;;;;;;;;;;4989152;28;20070;-70
2022/12/13 06:01:58;;;;;;;59.65;19.63;;;;;;;;;;4988125;28;20065;-69
2022/12/13 06:04:23;;;;;;;67.18;21.20;;;;;;;;;;4987967;28;20025;-69
2022/12/13 06:06:49;;;;;;;60.90;20.98;;;;;;;;;;4988395;28;20026;-69
2022/12/13 06:09:14;;;;;;;57.03;20.33;;;;;;;;;;4987675;28;20053;-69
2022/12/13 06:11:40;;;;;;;68.88;22.15;;;;;;;;;;4988795;28;20096;-69
2022/12/13 06:14:05;;;;;;;60.70;19.77;;;;;;;;;;4988654;28;20046;-69
2022/12/13 06:16:30;;;;;;;57.25;20.20;;;;;;;;;;4987280;28;20030;-69
2022/12/13 06:18:55;;;;;;;69.07;21.20;;;;;;;;;;4988988;28;20027;-69
2022/12/13 06:21:20;;;;;;;61.42;19.75;;;;;;;;;;4986636;28;20026;-69
2022/12/13 06:23:46;;;;;;;67.88;21.95;;;;;;;;;;4986186;28;20468;-69
2022/12/13 06:26:11;;;;;;;67.28;24.05;;;;;;;;;;4987490;28;20085;-69
2022/12/13 06:28:36;;;;;;;66.70;23.00;;;;;;;;;;4989698;28;20030;-69
2022/12/13 06:31:02;;;;;;;71.13;23.63;;;;;;;;;;4986285;28;20407;-69
2022/12/13 06:33:28;;;;;;;61.38;20.85;;;;;;;;;;4981209;28;20019;-69
2022/12/13 06:35:57;;;;;;;60.88;20.27;;;;;;;;;;4984680;28;20022;-69
2022/12/13 06:38:22;;;;;;;60.58;20.42;;;;;;;;;;4981812;28;20584;-69
2022/12/13 06:40:48;;;;;;;67.13;21.05;;;;;;;;;;4987815;28;20027;-69
2022/12/13 06:43:13;;;;;;;62.30;20.73;;;;;;;;;;4987487;28;20030;-69
2022/12/13 06:45:39;;;;;;;68.38;24.02;;;;;;;;;;4985661;28;20045;-69
2022/12/13 06:48:04;;;;;;;66.60;22.35;;;;;;;;;;4984845;28;20026;-68
2022/12/13 06:50:29;;;;;;;56.92;19.73;;;;;;;;;;4986166;28;20025;-69
2022/12/13 06:52:55;;;;;;;56.70;19.67;;;;;;;;;;4986517;28;20010;-69
2022/12/13 06:55:20;;;;;;;64.78;20.63;;;;;;;;;;4983918;28;20120;-69
2022/12/13 06:57:45;;;;;;;77.00;24.40;;;;;;;;;;4980010;28;20042;-70
2022/12/13 07:00:10;;;;;;;72.70;23.52;;;;;;;;;;4988185;28;20492;-69
2022/12/13 07:02:36;;;;;;;48.38;17.83;;;;;;;;;;4989811;28;20489;-69
2022/12/13 07:05:02;;;;;;;46.97;15.65;;;;;;;;;;4985004;28;20030;-69
2022/12/13 07:07:27;;;;;;;70.07;22.45;;;;;;;;;;4984346;28;20032;-70
2022/12/13 07:09:52;;;;;;;72.45;23.80;;;;;;;;;;4980866;28;20027;-70
2022/12/13 07:12:19;;;;;;;70.72;22.65;;;;;;;;;;4991024;28;20015;-70
2022/12/13 07:14:45;;;;;;;70.45;22.98;;;;;;;;;;4987823;28;20023;-70
2022/12/13 07:17:10;;;;;;;70.72;24.80;;;;;;;;;;4987331;28;20027;-70
2022/12/13 07:19:35;;;;;;;69.20;21.70;;;;;;;;;;4988787;28;20022;-70
2022/12/13 07:22:00;;;;;;;75.20;24.27;;;;;;;;;;4988637;28;20061;-69
2022/12/13 07:24:25;;;;;;;72.72;23.42;;;;;;;;;;4986228;28;20492;-70
2022/12/13 07:26:50;;;;;;;74.55;24.90;;;;;;;;;;4986631;28;20058;-70
2022/12/13 07:29:16;;;;;;;72.93;21.85;;;;;;;;;;4982588;28;20414;-70
2022/12/13 07:31:41;;;;;;;68.22;23.75;;;;;;;;;;4981734;28;20060;-70
2022/12/13 07:34:06;;;;;;;63.05;22.17;;;;;;;;;;4983463;28;20038;-70
2022/12/13 07:36:31;;;;;;;75.05;23.48;;;;;;;;;;4993149;28;20041;-70
2022/12/13 07:38:57;;;;;;;66.28;22.77;;;;;;;;;;4992326;28;20105;-70
2022/12/13 07:41:22;;;;;;;73.20;22.15;;;;;;;;;;4984866;28;20379;-70
2022/12/13 07:43:48;;;;;;;65.88;20.27;;;;;;;;;;4982331;28;20030;-70
2022/12/13 07:46:13;;;;;;;60.10;20.92;;;;;;;;;;4990129;28;20101;-70
2022/12/13 07:48:38;;;;;;;67.72;24.92;;;;;;;;;;4989881;28;20021;-70
2022/12/13 07:51:05;;;;;;;67.20;21.55;;;;;;;;;;4990077;28;20014;-70
2022/12/13 07:53:31;;;;;;;74.95;23.65;;;;;;;;;;4986155;28;20030;-70
2022/12/13 07:55:56;;;;;;;70.68;23.08;;;;;;;;;;4985933;28;20521;-70
2022/12/13 07:58:21;;;;;;;62.85;21.50;;;;;;;;;;4986242;28;21902;-71
2022/12/13 08:00:47;;;;;;;65.43;22.48;;;;;;;;;;4991303;28;20497;-70
2022/12/13 08:03:12;;;;;;;66.15;22.17;;;;;;;;;;4985501;28;20121;-70
2022/12/13 08:05:38;;;;;;;67.10;22.85;;;;;;;;;;4989136;28;20033;-70
2022/12/13 08:08:04;;;;;;;61.65;22.13;;;;;;;;;;4988923;28;20030;-70
2022/12/13 08:10:29;;;;;;;61.03;21.88;;;;;;;;;;4990900;28;20101;-70
2022/12/13 08:12:55;;;;;;;61.65;20.75;;;;;;;;;;4992147;28;20105;-70
2022/12/13 08:15:20;;;;;;;60.63;19.95;;;;;;;;;;4989353;28;20027;-70
2022/12/13 08:17:45;;;;;;;63.67;23.02;;;;;;;;;;4982307;28;20030;-71
2022/12/13 08:20:11;;;;;;;56.65;20.20;;;;;;;;;;4987631;28;20031;-70
2022/12/13 08:22:36;;;;;;;54.92;19.92;;;;;;;;;;4989286;28;20022;-71
2022/12/13 08:25:01;;;;;;;54.58;20.95;;;;;;;;;;4989615;28;20030;-70
2022/12/13 08:27:26;;;;;;;61.03;22.05;;;;;;;;;;4991015;28;20109;-71
2022/12/13 08:29:52;;;;;;;56.50;20.48;;;;;;;;;;4989324;28;20295;-71
2022/12/13 08:32:17;;;;;;;44.75;17.92;;;;;;;;;;4989667;28;20085;-71
2022/12/13 08:34:42;;;;;;;40.75;17.95;;;;;;;;;;4985811;28;20504;-70
2022/12/13 08:37:07;;;;;;;49.40;19.00;;;;;;;;;;4984156;28;20039;-71
2022/12/13 08:39:33;;;;;;;45.65;15.93;;;;;;;;;;4987986;28;20419;-70
2022/12/13 08:41:59;;;;;;;40.28;16.60;;;;;;;;;;4985997;28;20030;-70
2022/12/13 08:44:24;;;;;;;47.25;17.90;;;;;;;;;;4985083;28;20026;-71
2022/12/13 08:46:49;;;;;;;30.27;12.30;;;;;;;;;;4991226;28;20357;-71
2022/12/13 08:49:14;;;;;;;43.60;18.58;;;;;;;;;;4984718;28;20030;-72
2022/12/13 08:51:40;;;;;;;39.22;16.95;;;;;;;;;;4988337;28;20068;-71
2022/12/13 08:54:05;;;;;;;40.55;17.02;;;;;;;;;;4986480;28;20483;-72
2022/12/13 08:56:30;;;;;;;39.08;15.75;;;;;;;;;;4984694;28;20050;-71
2022/12/13 08:58:55;;;;;;;38.63;16.87;;;;;;;;;;4981165;28;20054;-71
2022/12/13 09:01:21;;;;;;;37.88;16.83;;;;;;;;;;4984316;28;20763;-72
2022/12/13 09:03:46;;;;;;;39.83;17.00;;;;;;;;;;4988396;28;20370;-71
2022/12/13 09:06:12;;;;;;;40.13;17.35;;;;;;;;;;4985932;28;20288;-72
2022/12/13 09:08:38;;;;;;;41.05;17.75;;;;;;;;;;4989139;28;20022;-72
2022/12/13 09:11:04;;;;;;;37.40;16.58;;;;;;;;;;4986801;28;20026;-72
2022/12/13 09:13:33;;;;;;;41.70;16.88;;;;;;;;;;4985098;28;20042;-72
2022/12/13 09:16:09;;;;;;;37.90;15.82;;;;;;;;;;4987701;28;20119;-72
2022/12/13 09:18:34;;;;;;;43.63;17.27;;;;;;;;;;4990534;28;20428;-72
2022/12/13 09:21:04;;;;;;;42.30;18.92;;;;;;;;;;4988458;28;20105;-71
2022/12/13 09:23:29;;;;;;;44.95;18.95;;;;;;;;;;4983183;28;20246;-72
2022/12/13 09:25:55;;;;;;;39.55;17.05;;;;;;;;;;4988054;28;20556;-72
2022/12/13 09:28:21;;;;;;;40.45;17.90;;;;;;;;;;4992419;28;20026;-72
2022/12/13 09:30:47;;;;;;;40.75;17.85;;;;;;;;;;4987273;28;20037;-71
2022/12/13 09:33:12;;;;;;;34.30;16.10;;;;;;;;;;4988616;28;20023;-71
2022/12/13 09:35:37;;;;;;;39.20;17.50;;;;;;;;;;4989925;28;20130;-72
2022/12/13 09:38:02;;;;;;;38.85;17.20;;;;;;;;;;4988567;28;21017;-71
2022/12/13 09:40:28;;;;;;;38.63;14.03;;;;;;;;;;4980483;28;20018;-71
2022/12/13 09:42:56;;;;;;;37.58;17.92;;;;;;;;;;4985279;28;20317;-71
2022/12/13 09:45:21;;;;;;;36.90;15.30;;;;;;;;;;4985671;28;20072;-71
2022/12/13 09:47:47;;;;;;;40.83;15.93;;;;;;;;;;4988795;28;20026;-71
2022/12/13 09:50:26;;;;;;;37.58;17.17;;;;;;;;;;4990255;28;20022;-72
2022/12/13 09:52:51;;;;;;;34.67;15.82;;;;;;;;;;4986970;28;20072;-72
2022/12/13 09:55:19;;;;;;;33.55;15.80;;;;;;;;;;4984990;28;20463;-72
2022/12/13 09:57:44;;;;;;;37.60;16.02;;;;;;;;;;4989854;28;20080;-71
2022/12/13 10:00:14;;;;;;;42.20;16.95;;;;;;;;;;4984971;28;20023;-71
2022/12/13 10:02:47;;;;;;;39.90;16.92;;;;;;;;;;4984223;28;20023;-71
2022/12/13 10:05:13;;;;;;;38.10;15.73;;;;;;;;;;4989681;28;20023;-70
2022/12/13 10:07:38;;;;;;;41.40;16.25;;;;;;;;;;4989484;28;20061;-72
2022/12/13 10:10:04;;;;;;;41.42;16.00;;;;;;;;;;4989290;28;20336;-72
2022/12/13 10:12:31;;;;;;;38.47;15.68;;;;;;;;;;4989099;28;20022;-71
2022/12/13 10:14:58;;;;;;;32.65;12.98;;;;;;;;;;4982036;28;20076;-72
2022/12/13 10:17:25;;;;;;;33.58;14.30;;;;;;;;;;4982648;28;20647;-72
2022/12/13 10:19:50;;;;;;;38.10;15.73;;;;;;;;;;4990679;28;20050;-71
2022/12/13 10:22:17;;;;;;;33.75;15.43;;;;;;;;;;4988491;28;20026;-72
2022/12/13 10:24:45;;;;;;;39.17;14.93;;;;;;;;;;4990291;28;20077;-72
2022/12/13 10:27:12;;;;;;;34.78;12.88;;;;;;;;;;4985055;28;20035;-72
2022/12/13 10:29:57;;;;;;;24.58;10.38;;;;;;;;;;4981228;28;20026;-71
2022/12/13 10:32:23;;;;;;;34.55;14.00;;;;;;;;;;4981185;28;20026;-71
2022/12/13 10:34:48;;;;;;;35.28;15.68;;;;;;;;;;4988037;28;20475;-71
2022/12/13 10:37:22;;;;;;;35.83;15.38;;;;;;;;;;4989714;28;20019;-71
2022/12/13 10:39:47;;;;;;;35.97;13.80;;;;;;;;;;4986624;28;20101;-71
2022/12/13 10:42:16;;;;;;;34.53;15.70;;;;;;;;;;4988403;28;20490;-71
2022/12/13 10:44:42;;;;;;;29.23;11.85;;;;;;;;;;4987327;28;20035;-71
2022/12/13 10:47:17;;;;;;;19.67;8.25;;;;;;;;;;4982847;28;20026;-72
2022/12/13 10:49:47;;;;;;;28.88;9.52;;;;;;;;;;4984340;28;20532;-71
2022/12/13 10:52:31;;;;;;;38.00;15.27;;;;;;;;;;4988432;28;20383;-71
2022/12/13 10:55:01;;;;;;;28.65;12.77;;;;;;;;;;4987761;28;20042;-71
2022/12/13 10:57:26;;;;;;;26.55;11.95;;;;;;;;;;4989315;28;20423;-71
2022/12/13 10:59:51;;;;;;;30.90;12.05;;;;;;;;;;4983761;28;20034;-71
2022/12/13 11:02:35;;;;;;;21.88;8.27;;;;;;;;;;4982099;28;20033;-72
2022/12/13 11:05:19;;;;;;;18.83;6.15;;;;;;;;;;4986962;28;20420;-71
2022/12/13 11:07:45;;;;;;;35.88;13.88;;;;;;;;;;4985269;28;20030;-72
2022/12/13 11:10:15;;;;;;;28.95;11.57;;;;;;;;;;4985141;28;20495;-72
2022/12/13 11:12:41;;;;;;;23.02;10.15;;;;;;;;;;4980147;28;20085;-72
2022/12/13 11:15:06;;;;;;;21.13;8.18;;;;;;;;;;4980563;28;20026;-72
2022/12/13 11:17:35;;;;;;;14.32;6.95;;;;;;;;;;4987908;28;20022;-72
2022/12/13 11:20:03;;;;;;;26.40;10.18;;;;;;;;;;4987111;28;20088;-72
2022/12/13 11:22:33;;;;;;;32.47;13.18;;;;;;;;;;4988050;28;20081;-72
2022/12/13 11:25:17;;;;;;;20.08;10.00;;;;;;;;;;4988242;28;20038;-72
2022/12/13 11:28:00;;;;;;;30.80;13.30;;;;;;;;;;4984437;28;20054;-72
2022/12/13 11:30:44;;;;;;;21.20;8.68;;;;;;;;;;4984516;28;20050;-72
2022/12/13 11:33:15;;;;;;;30.55;11.70;;;;;;;;;;4985091;28;20022;-72
2022/12/13 11:35:46;;;;;;;27.20;10.55;;;;;;;;;;4986274;28;20018;-72
2022/12/13 11:38:21;;;;;;;21.13;7.72;;;;;;;;;;4989524;28;20023;-72
2022/12/13 11:40:51;;;;;;;20.27;6.90;;;;;;;;;;4986924;28;20061;-72
2022/12/13 11:43:25;;;;;;;31.83;12.95;;;;;;;;;;4986412;28;20022;-72
2022/12/13 11:45:54;;;;;;;30.40;9.82;;;;;;;;;;4984295;28;20121;-72
2022/12/13 11:48:27;;;;;;;29.02;12.73;;;;;;;;;;4990539;28;20025;-72
2022/12/13 11:50:55;;;;;;;20.17;8.98;;;;;;;;;;4990357;28;20022;-72
2022/12/13 11:53:29;;;;;;;23.20;9.18;;;;;;;;;;4991470;28;20015;-72
2022/12/13 11:56:07;;;;;;;21.92;8.00;;;;;;;;;;4988808;28;20026;-72
2022/12/13 11:58:38;;;;;;;23.58;9.15;;;;;;;;;;4988482;28;20058;-72
2022/12/13 12:01:11;;;;;;;27.92;10.00;;;;;;;;;;4981699;28;20097;-72
2022/12/13 12:03:39;;;;;;;26.00;10.85;;;;;;;;;;4988255;28;20015;-72
2022/12/13 12:06:15;;;;;;;19.00;9.38;;;;;;;;;;4989914;28;20105;-72
2022/12/13 12:08:52;;;;;;;17.65;6.93;;;;;;;;;;4993509;28;20836;-72
2022/12/13 12:11:20;;;;;;;23.52;7.10;;;;;;;;;;4987923;28;20022;-72
2022/12/13 12:13:51;;;;;;;20.38;8.75;;;;;;;;;;4989649;28;20018;-72
2022/12/13 12:16:24;;;;;;;23.85;10.38;;;;;;;;;;4989977;28;20015;-72
2022/12/13 12:18:49;;;;;;;24.77;7.00;;;;;;;;;;4990888;28;20022;-72
2022/12/13 12:21:14;;;;;;;17.58;8.57;;;;;;;;;;4991391;28;20025;-72
2022/12/13 12:24:04;;;;;;;19.60;9.05;;;;;;;;;;4986008;28;20034;-72
2022/12/13 12:26:39;;;;;;;26.02;10.02;;;;;;;;;;4982953;28;20266;-72
2022/12/13 12:29:11;;;;;;;12.10;6.10;;;;;;;;;;4980125;28;20463;-72
2022/12/13 12:31:43;;;;;;;13.27;5.90;;;;;;;;;;4988992;28;20058;-72
2022/12/13 12:34:14;;;;;;;25.55;8.23;;;;;;;;;;4984460;28;20428;-72
2022/12/13 12:37:18;;;;;;;23.67;8.77;;;;;;;;;;4989608;28;20038;-72
2022/12/13 12:39:49;;;;;;;16.40;7.05;;;;;;;;;;4985743;28;20528;-72
2022/12/13 12:42:23;;;;;;;23.35;9.15;;;;;;;;;;4986767;28;20438;-72
2022/12/13 12:44:49;;;;;;;17.27;7.47;;;;;;;;;;4984181;28;20081;-72
2022/12/13 12:47:33;;;;;;;20.15;7.80;;;;;;;;;;4989863;28;20050;-72
2022/12/13 12:50:14;;;;;;;18.58;7.65;;;;;;;;;;4982455;28;20218;-72
2022/12/13 12:52:40;;;;;;;21.38;9.65;;;;;;;;;;4986205;28;20015;-72
2022/12/13 12:55:13;;;;;;;25.17;10.43;;;;;;;;;;4988081;28;20045;-72
2022/12/13 12:57:47;;;;;;;14.65;5.72;;;;;;;;;;4985882;28;20038;-72
2022/12/13 13:00:20;;;;;;;12.38;6.22;;;;;;;;;;4988220;28;20018;-72
2022/12/13 13:02:54;;;;;;;14.93;6.10;;;;;;;;;;4986590;28;20026;-72
2022/12/13 13:05:26;;;;;;;15.25;5.82;;;;;;;;;;4987249;28;20030;-72
2022/12/13 13:08:14;;;;;;;13.15;5.25;;;;;;;;;;4981414;28;20322;-72
2022/12/13 13:10:41;;;;;;;12.30;6.70;;;;;;;;;;4984468;28;20066;-72
2022/12/13 13:13:26;;;;;;;13.10;6.00;;;;;;;;;;4985765;28;20129;-72
2022/12/13 13:15:53;;;;;;;8.85;3.83;;;;;;;;;;4987044;28;20030;-72
2022/12/13 13:18:37;;;;;;;21.25;10.05;;;;;;;;;;4987957;28;20022;-72
2022/12/13 13:21:22;;;;;;;25.05;10.13;;;;;;;;;;4984270;28;20511;-72
2022/12/13 13:24:08;;;;;;;10.95;5.05;;;;;;;;;;4989162;28;20034;-72
2022/12/13 13:26:53;;;;;;;20.38;8.95;;;;;;;;;;4980923;28;20048;-72
2022/12/13 13:29:21;;;;;;;10.90;6.03;;;;;;;;;;4986132;28;20035;-72
2022/12/13 13:32:09;;;;;;;19.80;7.55;;;;;;;;;;4985981;28;20030;-72
2022/12/13 13:34:45;;;;;;;23.52;9.45;;;;;;;;;;4989083;28;20053;-72
2022/12/13 13:37:19;;;;;;;22.92;9.20;;;;;;;;;;4983973;28;20085;-72
2022/12/13 13:40:02;;;;;;;22.92;9.10;;;;;;;;;;4986920;28;20151;-72
2022/12/13 13:42:28;;;;;;;21.55;9.98;;;;;;;;;;4984276;28;20278;-72
2022/12/13 13:44:53;;;;;;;26.08;9.82;;;;;;;;;;4983462;28;20027;-72
2022/12/13 13:47:18;;;;;;;39.87;12.17;;;;;;;;;;4981761;28;20026;-72
2022/12/13 13:49:56;;;;;;;24.13;10.35;;;;;;;;;;4979661;28;20698;-72
2022/12/13 13:52:25;;;;;;;24.67;10.10;;;;;;;;;;4985681;28;20266;-72
2022/12/13 13:54:53;;;;;;;30.50;10.25;;;;;;;;;;4984940;28;20010;-72
2022/12/13 13:57:19;;;;;;;22.67;9.57;;;;;;;;;;4986600;28;20484;-72
2022/12/13 13:59:54;;;;;;;31.90;10.68;;;;;;;;;;4985833;28;20041;-72
2022/12/13 14:02:37;;;;;;;21.33;8.48;;;;;;;;;;4986972;28;20029;-72
2022/12/13 14:05:21;;;;;;;27.02;10.88;;;;;;;;;;4991105;28;20049;-72
2022/12/13 14:07:52;;;;;;;23.80;9.07;;;;;;;;;;4986168;28;20041;-72
2022/12/13 14:10:20;;;;;;;23.15;10.45;;;;;;;;;;4986674;28;20018;-72
2022/12/13 14:13:04;;;;;;;15.00;5.70;;;;;;;;;;4988323;28;20030;-72
2022/12/13 14:15:45;;;;;;;7.85;3.28;;;;;;;;;;4979957;28;20014;-72
2022/12/13 14:18:10;;;;;;;21.85;8.27;;;;;;;;;;4989266;28;20026;-72
2022/12/13 14:20:43;;;;;;;21.17;8.77;;;;;;;;;;4988290;28;20528;-72
2022/12/13 14:23:24;;;;;;;23.85;9.02;;;;;;;;;;4990345;28;20268;-72
2022/12/13 14:26:01;;;;;;;20.73;9.02;;;;;;;;;;4989651;28;20027;-72
2022/12/13 14:28:52;;;;;;;25.63;9.10;;;;;;;;;;4983083;28;20018;-72
2022/12/13 14:31:22;;;;;;;19.52;8.00;;;;;;;;;;4983889;28;20041;-72